Allouez, Wisconsin
Current Conditions -  °F | °C
As of 6:53 AM on Thursday 27 Nov 2014 (Local Time) from KGRB Reporting Station
Overcast Overcast  
Wind Chill:   Ceiling: 4100
Heat Index: 19°   Visibility: 10mi
Dew Point: 12°   Wind: 13mph
Humidity: 74%   Direction: 350°N
Pressure: 30.29"   Gusts: NA
Location:  44.48°N, 88.02°W
Report Text: KGRB 271253Z 35011KT 10SM OVC041 M07/M11 A3029 RMK AO2 SNE1158 SLP271 P0000 T10721111
Loading
Personal Weather Stations






























Interactive Weather Map New forecast layout! Learn more

10-Day Weather Forecast

Advertisements
Track Severe Weather on mobile